createdAt,value
2018-08-06T00:00:22.283Z,18.53
2018-08-06T00:02:51.135Z,18.53
2018-08-06T00:05:19.990Z,18.53
2018-08-06T00:07:49.195Z,18.47
2018-08-06T00:10:20.679Z,18.20
2018-08-06T00:12:49.443Z,18.07
2018-08-06T00:15:18.555Z,17.98
2018-08-06T00:17:47.646Z,17.95
2018-08-06T00:20:17.043Z,17.89
2018-08-06T00:22:46.347Z,17.82
2018-08-06T00:25:16.133Z,17.60
2018-08-06T00:27:45.311Z,17.62
2018-08-06T00:30:16.031Z,17.66
2018-08-06T00:32:45.752Z,17.65
2018-08-06T00:35:15.019Z,17.64
2018-08-06T00:37:44.167Z,17.65
2018-08-06T00:40:15.113Z,17.64
2018-08-06T00:42:44.624Z,17.60
2018-08-06T00:45:15.688Z,17.52
2018-08-06T00:47:44.870Z,17.43
2018-08-06T00:50:13.799Z,17.33
2018-08-06T00:52:42.919Z,17.26
2018-08-06T00:55:16.864Z,17.24
2018-08-06T00:57:45.702Z,17.21
2018-08-06T01:00:18.116Z,17.22
2018-08-06T01:02:47.822Z,17.19
2018-08-06T01:05:17.498Z,17.20
2018-08-06T01:07:46.832Z,17.18
2018-08-06T01:10:16.814Z,17.14
2018-08-06T01:12:45.513Z,17.13
2018-08-06T01:15:17.137Z,17.12
2018-08-06T01:17:46.247Z,17.08
2018-08-06T01:20:15.492Z,17.06
2018-08-06T01:22:44.968Z,17.03
2018-08-06T01:25:14.454Z,16.98
2018-08-06T01:27:43.441Z,16.97
2018-08-06T01:30:15.054Z,16.96
2018-08-06T01:32:43.969Z,16.96
2018-08-06T01:35:13.059Z,16.94
2018-08-06T01:37:41.831Z,16.91
2018-08-06T01:40:18.266Z,16.88
2018-08-06T01:42:47.189Z,16.85
2018-08-06T01:45:17.060Z,16.82
2018-08-06T01:47:46.185Z,16.81
2018-08-06T01:50:15.890Z,16.80
2018-08-06T01:52:45.129Z,16.79
2018-08-06T01:55:14.042Z,16.78
2018-08-06T01:57:43.010Z,16.73
2018-08-06T02:00:15.294Z,16.71
2018-08-06T02:02:44.356Z,16.68
2018-08-06T02:05:13.559Z,16.66
2018-08-06T02:07:42.564Z,16.66
2018-08-06T02:10:13.760Z,16.64
2018-08-06T02:12:43.383Z,16.63
2018-08-06T02:15:12.679Z,16.59
2018-08-06T02:17:41.696Z,16.51
2018-08-06T02:20:13.070Z,16.42
2018-08-06T02:22:42.165Z,16.30
2018-08-06T02:25:11.727Z,16.23
2018-08-06T02:27:40.954Z,16.23
2018-08-06T02:30:15.012Z,16.23
2018-08-06T02:32:43.708Z,16.23
2018-08-06T02:35:14.007Z,16.23
2018-08-06T02:37:43.170Z,16.22
2018-08-06T02:40:14.083Z,16.24
2018-08-06T02:42:42.825Z,16.25
2018-08-06T02:45:12.060Z,16.26
2018-08-06T02:47:41.042Z,16.26
2018-08-06T02:50:11.115Z,16.27
2018-08-06T02:52:41.918Z,16.28
2018-08-06T02:55:12.969Z,16.27
2018-08-06T02:57:42.011Z,16.26
2018-08-06T03:00:14.081Z,16.23
2018-08-06T03:02:44.189Z,16.25
2018-08-06T03:05:15.128Z,16.26
2018-08-06T03:07:44.738Z,16.24
2018-08-06T03:10:13.863Z,16.23
2018-08-06T03:12:43.980Z,16.23
2018-08-06T03:15:13.219Z,16.24
2018-08-06T03:17:43.230Z,16.24
2018-08-06T03:20:13.437Z,16.23
2018-08-06T03:22:42.221Z,16.21
2018-08-06T03:25:12.914Z,16.18
2018-08-06T03:27:42.116Z,16.15
2018-08-06T03:30:13.439Z,16.11
2018-08-06T03:32:42.419Z,16.07
2018-08-06T03:35:12.019Z,16.04
2018-08-06T03:37:41.084Z,16.03
2018-08-06T03:40:10.765Z,16.01
2018-08-06T03:42:40.345Z,15.98
2018-08-06T03:45:10.655Z,15.97
2018-08-06T03:47:40.345Z,15.94
2018-08-06T03:50:10.404Z,15.93
2018-08-06T03:52:39.626Z,15.92
2018-08-06T03:55:10.092Z,15.93
2018-08-06T03:57:39.311Z,15.90
2018-08-06T04:00:10.970Z,15.86
2018-08-06T04:02:40.334Z,15.83
2018-08-06T04:05:11.208Z,15.73
2018-08-06T04:07:40.697Z,15.70
2018-08-06T04:10:17.449Z,15.69
2018-08-06T04:12:46.623Z,15.71
2018-08-06T04:15:15.450Z,15.72
2018-08-06T04:17:44.838Z,15.72
2018-08-06T04:20:14.339Z,15.73
2018-08-06T04:22:43.782Z,15.76
2018-08-06T04:25:12.611Z,15.79
2018-08-06T04:27:41.879Z,15.83
2018-08-06T04:30:13.288Z,15.85
2018-08-06T04:32:44.211Z,15.89
2018-08-06T04:35:13.242Z,15.92
2018-08-06T04:37:43.291Z,15.94
2018-08-06T04:40:13.113Z,15.98
2018-08-06T04:42:42.872Z,15.98
2018-08-06T04:45:12.093Z,15.99
2018-08-06T04:47:42.072Z,16.01
2018-08-06T04:50:12.936Z,16.03
2018-08-06T04:52:41.910Z,16.09
2018-08-06T04:55:12.679Z,16.13
2018-08-06T04:57:42.204Z,16.18
2018-08-06T05:00:13.690Z,16.21
2018-08-06T05:02:43.300Z,16.23
2018-08-06T05:05:12.251Z,16.28
2018-08-06T05:07:41.377Z,16.32
2018-08-06T05:10:10.459Z,16.35
2018-08-06T05:12:39.232Z,16.38
2018-08-06T05:15:08.274Z,16.40
2018-08-06T05:17:37.063Z,16.46
2018-08-06T05:20:06.367Z,16.46
2018-08-06T05:22:35.125Z,16.49
2018-08-06T05:25:04.262Z,16.53
2018-08-06T05:27:33.416Z,16.58
2018-08-06T05:30:02.813Z,16.64
2018-08-06T05:32:32.206Z,16.70
2018-08-06T05:35:01.177Z,16.76
2018-08-06T05:37:29.978Z,16.84
2018-08-06T05:39:59.678Z,16.92
2018-08-06T05:42:28.862Z,17.01
2018-08-06T05:44:57.652Z,17.11
2018-08-06T05:47:26.419Z,17.20
2018-08-06T05:49:55.551Z,17.31
2018-08-06T05:52:24.892Z,17.42
2018-08-06T05:54:53.894Z,17.51
2018-08-06T05:57:23.345Z,17.64
2018-08-06T05:59:52.149Z,17.75
2018-08-06T06:02:20.936Z,17.90
2018-08-06T06:04:49.680Z,18.02
2018-08-06T06:07:18.399Z,18.15
2018-08-06T06:09:47.491Z,18.27
2018-08-06T06:12:16.197Z,18.46
2018-08-06T06:14:51.555Z,18.68
2018-08-06T06:17:20.291Z,18.88
2018-08-06T06:19:49.608Z,19.05
2018-08-06T06:22:18.422Z,19.25
2018-08-06T06:24:47.206Z,19.42
2018-08-06T06:27:15.969Z,19.58
2018-08-06T06:29:45.013Z,19.80
2018-08-06T06:32:14.044Z,19.91
2018-08-06T06:34:42.827Z,20.01
2018-08-06T06:37:11.598Z,20.11
2018-08-06T06:39:41.114Z,20.23
2018-08-06T06:42:10.179Z,20.32
2018-08-06T06:44:38.978Z,20.43
2018-08-06T06:47:07.690Z,20.56
2018-08-06T06:49:36.693Z,20.75
2018-08-06T06:52:05.410Z,20.96
2018-08-06T06:54:34.517Z,21.23
2018-08-06T06:57:03.224Z,21.36
2018-08-06T06:59:32.018Z,21.55
2018-08-06T07:02:01.046Z,21.63
2018-08-06T07:04:29.986Z,21.72
2018-08-06T07:06:58.796Z,21.85
2018-08-06T07:09:28.091Z,21.96
2018-08-06T07:11:56.793Z,22.13
2018-08-06T07:14:25.628Z,22.30
2018-08-06T07:16:54.575Z,22.43
2018-08-06T07:19:23.585Z,22.59
2018-08-06T07:21:52.591Z,22.74
2018-08-06T07:24:21.378Z,22.88
2018-08-06T07:26:50.134Z,23.02
2018-08-06T07:29:19.170Z,23.16
2018-08-06T07:31:48.224Z,23.29
2018-08-06T07:34:18.185Z,23.49
2018-08-06T07:36:47.291Z,23.57
2018-08-06T07:39:16.212Z,23.72
2018-08-06T07:41:44.958Z,23.90
2018-08-06T07:44:13.904Z,24.09
2018-08-06T07:46:42.629Z,24.21
2018-08-06T07:49:11.632Z,24.33
2018-08-06T07:51:40.554Z,24.44
2018-08-06T07:54:09.285Z,24.53
2018-08-06T07:56:38.009Z,24.56
2018-08-06T07:59:07.270Z,24.62
2018-08-06T08:01:36.755Z,24.77
2018-08-06T08:04:05.467Z,24.92
2018-08-06T08:06:34.195Z,24.97
2018-08-06T08:09:03.386Z,25.15
2018-08-06T08:11:32.106Z,25.29
2018-08-06T08:14:01.180Z,25.31
2018-08-06T08:16:29.937Z,25.36
2018-08-06T08:18:58.900Z,25.44
2018-08-06T08:21:27.671Z,25.47
2018-08-06T08:23:56.361Z,25.63
2018-08-06T08:26:25.392Z,25.72
2018-08-06T08:28:54.408Z,25.91
2018-08-06T08:31:23.333Z,26.10
2018-08-06T08:33:52.209Z,26.23
2018-08-06T08:36:21.542Z,26.38
2018-08-06T08:38:50.968Z,26.45
2018-08-06T08:41:19.690Z,26.57
2018-08-06T08:43:48.466Z,26.73
2018-08-06T08:46:17.651Z,26.72
2018-08-06T08:48:46.711Z,26.78
2018-08-06T08:51:15.438Z,26.81
2018-08-06T08:53:44.188Z,26.86
2018-08-06T08:56:13.211Z,26.87
2018-08-06T08:58:41.975Z,26.93
2018-08-06T09:01:10.898Z,27.06
2018-08-06T09:03:39.613Z,27.29
2018-08-06T09:06:15.243Z,27.44
2018-08-06T09:08:43.989Z,27.55
2018-08-06T09:11:12.750Z,27.70
2018-08-06T09:13:41.794Z,27.82
2018-08-06T09:16:11.139Z,27.99
2018-08-06T09:18:40.074Z,28.21
2018-08-06T09:21:09.573Z,28.45
2018-08-06T09:23:38.644Z,28.57
2018-08-06T09:26:07.704Z,28.66
2018-08-06T09:28:36.400Z,28.78
2018-08-06T09:31:05.167Z,28.87
2018-08-06T09:33:34.767Z,29.00
2018-08-06T09:36:03.491Z,29.12
2018-08-06T09:38:32.224Z,29.17
2018-08-06T09:41:01.230Z,29.30
2018-08-06T09:43:29.995Z,29.52
2018-08-06T09:45:59.421Z,29.67
2018-08-06T09:48:28.216Z,29.71
2018-08-06T09:50:57.298Z,29.73
2018-08-06T09:53:26.389Z,29.69
2018-08-06T09:55:55.171Z,29.74
2018-08-06T09:58:24.581Z,29.88
2018-08-06T10:01:58.528Z,30.11
2018-08-06T10:04:28.336Z,30.45
2018-08-06T10:06:57.426Z,30.38
2018-08-06T10:09:26.183Z,30.59
2018-08-06T10:11:54.993Z,30.87
2018-08-06T10:14:23.715Z,31.08
2018-08-06T10:16:52.520Z,31.09
2018-08-06T10:19:21.288Z,31.05
2018-08-06T10:21:50.000Z,31.02
2018-08-06T10:24:19.114Z,31.07
2018-08-06T10:26:48.116Z,31.42
2018-08-06T10:29:16.842Z,31.62
2018-08-06T10:31:45.708Z,31.84
2018-08-06T10:34:14.418Z,31.99
2018-08-06T10:36:43.129Z,32.09
2018-08-06T10:39:12.472Z,32.29
2018-08-06T10:41:41.506Z,32.57
2018-08-06T10:44:10.234Z,32.78
2018-08-06T10:46:39.590Z,32.77
2018-08-06T10:49:08.311Z,32.90
2018-08-06T10:51:37.021Z,33.00
2018-08-06T10:54:06.024Z,33.01
2018-08-06T10:56:34.764Z,33.29
2018-08-06T10:59:03.468Z,33.56
2018-08-06T11:01:32.216Z,33.57
2018-08-06T11:04:00.958Z,33.64
2018-08-06T11:06:30.285Z,33.78
2018-08-06T11:08:58.974Z,34.04
2018-08-06T11:11:28.352Z,34.19
2018-08-06T11:13:57.084Z,34.38
2018-08-06T11:16:25.783Z,34.58
2018-08-06T11:18:54.994Z,34.74
2018-08-06T11:21:23.943Z,34.99
2018-08-06T11:23:52.679Z,35.11
2018-08-06T11:26:21.622Z,35.19
2018-08-06T11:28:50.334Z,35.37
2018-08-06T11:31:19.106Z,35.32
2018-08-06T11:33:47.826Z,35.36
2018-08-06T11:36:16.572Z,35.42
2018-08-06T11:38:45.279Z,35.53
2018-08-06T11:41:14.014Z,35.55
2018-08-06T11:43:43.065Z,35.73
2018-08-06T11:46:11.802Z,35.88
2018-08-06T11:48:40.523Z,36.05
2018-08-06T11:51:09.285Z,36.40
2018-08-06T11:53:40.857Z,36.67
2018-08-06T11:56:09.663Z,36.84
2018-08-06T11:58:38.950Z,37.06
2018-08-06T12:01:08.274Z,37.21
2018-08-06T12:03:37.468Z,37.26
2018-08-06T12:06:06.223Z,37.22
2018-08-06T12:08:35.331Z,37.23
2018-08-06T12:11:04.090Z,37.28
2018-08-06T12:13:33.174Z,37.42
2018-08-06T12:16:02.278Z,37.54
2018-08-06T12:18:31.295Z,37.68
2018-08-06T12:21:00.929Z,37.77
2018-08-06T12:23:29.604Z,37.86
2018-08-06T12:25:58.704Z,37.83
2018-08-06T12:28:27.433Z,37.94
2018-08-06T12:30:56.449Z,38.16
2018-08-06T12:33:25.234Z,38.05
2018-08-06T12:35:54.197Z,38.02
2018-08-06T12:38:23.200Z,38.24
2018-08-06T12:40:52.266Z,38.19
2018-08-06T12:43:21.003Z,38.09
2018-08-06T12:45:49.742Z,38.14
2018-08-06T12:48:18.508Z,38.02
2018-08-06T12:50:47.322Z,37.88
2018-08-06T12:53:16.338Z,37.84
2018-08-06T12:55:45.117Z,38.09
2018-08-06T12:58:14.270Z,38.33
2018-08-06T13:00:43.010Z,38.42
2018-08-06T13:03:11.816Z,38.41
2018-08-06T13:05:40.816Z,38.47
2018-08-06T13:08:09.606Z,38.39
2018-08-06T13:10:38.361Z,38.51
2018-08-06T13:13:07.144Z,38.51
2018-08-06T13:15:35.875Z,38.73
2018-08-06T13:18:05.202Z,38.91
2018-08-06T13:20:34.232Z,39.20
2018-08-06T13:23:03.367Z,39.39
2018-08-06T13:25:32.180Z,39.54
2018-08-06T13:28:01.580Z,39.73
2018-08-06T13:30:30.319Z,39.93
2018-08-06T13:32:59.058Z,40.05
2018-08-06T13:35:28.178Z,40.07
2018-08-06T13:37:57.170Z,40.00
2018-08-06T13:40:25.919Z,40.19
2018-08-06T13:42:55.346Z,40.29
2018-08-06T13:45:24.119Z,40.22
2018-08-06T13:47:53.187Z,40.35
2018-08-06T13:50:22.344Z,40.02
2018-08-06T13:52:51.537Z,39.96
2018-08-06T13:55:20.323Z,39.63
2018-08-06T13:57:49.404Z,39.60
2018-08-06T14:00:19.705Z,39.94
2018-08-06T14:02:48.924Z,40.08
2018-08-06T14:05:18.520Z,40.12
2018-08-06T14:07:48.789Z,39.81
2018-08-06T14:10:18.150Z,39.80
2018-08-06T14:12:46.944Z,39.88
2018-08-06T14:15:18.998Z,39.74
2018-08-06T14:17:48.039Z,39.76
2018-08-06T14:20:18.419Z,39.68
2018-08-06T14:22:47.208Z,40.17
2018-08-06T14:25:15.960Z,40.22
2018-08-06T14:27:44.729Z,39.88
2018-08-06T14:30:15.198Z,39.87
2018-08-06T14:32:44.704Z,39.91
2018-08-06T14:35:14.367Z,39.67
2018-08-06T14:37:43.478Z,39.81
2018-08-06T14:40:15.432Z,39.72
2018-08-06T14:42:45.356Z,39.80
2018-08-06T14:45:14.101Z,39.70
2018-08-06T14:47:42.858Z,39.69
2018-08-06T14:50:13.452Z,39.97
2018-08-06T14:52:42.251Z,40.38
2018-08-06T14:55:11.388Z,40.39
2018-08-06T14:57:41.435Z,40.50
2018-08-06T15:00:16.812Z,40.56
2018-08-06T15:02:46.670Z,40.57
2018-08-06T15:05:16.461Z,40.52
2018-08-06T15:07:45.837Z,40.22
2018-08-06T15:10:15.140Z,40.36
2018-08-06T15:12:45.259Z,40.66
2018-08-06T15:15:14.979Z,40.73
2018-08-06T15:17:45.025Z,40.43
2018-08-06T15:20:18.890Z,40.32
2018-08-06T15:22:47.857Z,40.04
2018-08-06T15:25:21.787Z,39.84
2018-08-06T15:27:51.551Z,39.66
2018-08-06T15:30:20.940Z,39.55
2018-08-06T15:32:49.692Z,39.31
2018-08-06T15:35:18.427Z,39.17
2018-08-06T15:37:47.151Z,39.16
2018-08-06T15:40:19.212Z,39.22
2018-08-06T15:42:47.963Z,39.27
2018-08-06T15:45:16.666Z,39.40
2018-08-06T15:47:46.542Z,39.44
2018-08-06T15:50:17.741Z,39.45
2018-08-06T15:52:46.793Z,39.44
2018-08-06T15:55:15.797Z,39.55
2018-08-06T15:57:44.620Z,39.48
2018-08-06T16:00:16.269Z,39.54
2018-08-06T16:02:45.930Z,39.82
2018-08-06T16:05:15.168Z,40.07
2018-08-06T16:07:44.022Z,40.21
2018-08-06T16:10:13.413Z,40.24
2018-08-06T16:12:42.586Z,40.14
2018-08-06T16:15:13.106Z,39.90
2018-08-06T16:17:42.613Z,39.87
2018-08-06T16:20:13.352Z,39.87
2018-08-06T16:22:42.610Z,39.67
2018-08-06T16:25:11.944Z,39.70
2018-08-06T16:27:40.936Z,39.61
2018-08-06T16:30:12.471Z,39.50
2018-08-06T16:32:41.224Z,39.54
2018-08-06T16:35:10.196Z,39.53
2018-08-06T16:37:38.949Z,39.47
2018-08-06T16:40:08.656Z,39.19
2018-08-06T16:42:37.674Z,38.96
2018-08-06T16:45:07.486Z,38.89
2018-08-06T16:47:37.064Z,38.96
2018-08-06T16:50:06.533Z,38.97
2018-08-06T16:52:35.368Z,38.94
2018-08-06T16:55:04.823Z,39.01
2018-08-06T16:57:33.944Z,39.10
2018-08-06T17:00:02.776Z,39.03
2018-08-06T17:02:31.792Z,38.90
2018-08-06T17:05:00.782Z,38.82
2018-08-06T17:07:29.545Z,38.77
2018-08-06T17:09:58.609Z,38.87
2018-08-06T17:12:27.344Z,38.93
2018-08-06T17:14:56.077Z,38.94
2018-08-06T17:17:24.870Z,38.87
2018-08-06T17:19:54.100Z,38.78
2018-08-06T17:22:22.927Z,38.76
2018-08-06T17:24:51.690Z,38.51
2018-08-06T17:27:20.761Z,38.29
2018-08-06T17:29:49.620Z,38.08
2018-08-06T17:32:18.324Z,37.96
2018-08-06T17:34:47.112Z,37.92
2018-08-06T17:37:16.106Z,37.85
2018-08-06T17:39:45.616Z,37.88
2018-08-06T17:42:14.378Z,37.88
2018-08-06T17:44:43.480Z,37.85
2018-08-06T17:47:12.551Z,37.79
2018-08-06T17:49:41.647Z,37.74
2018-08-06T17:52:10.759Z,37.65
2018-08-06T17:54:39.480Z,37.48
2018-08-06T17:57:08.241Z,37.22
2018-08-06T17:59:37.238Z,37.08
2018-08-06T18:02:06.465Z,37.03
2018-08-06T18:04:35.226Z,37.02
2018-08-06T18:07:05.137Z,37.01
2018-08-06T18:09:33.968Z,36.85
2018-08-06T18:12:03.171Z,36.72
2018-08-06T18:14:31.866Z,36.59
2018-08-06T18:17:01.118Z,36.53
2018-08-06T18:19:29.897Z,36.41
2018-08-06T18:21:58.751Z,36.31
2018-08-06T18:24:27.589Z,36.00
2018-08-06T18:26:59.274Z,35.66
2018-08-06T18:29:28.204Z,35.34
2018-08-06T18:31:57.375Z,35.08
2018-08-06T18:34:26.366Z,34.92
2018-08-06T18:36:55.750Z,34.80
2018-08-06T18:39:24.523Z,34.67
2018-08-06T18:41:53.658Z,34.44
2018-08-06T18:44:22.687Z,34.19
2018-08-06T18:46:52.669Z,34.00
2018-08-06T18:49:21.531Z,33.97
2018-08-06T18:51:51.393Z,33.97
2018-08-06T18:54:20.694Z,33.91
2018-08-06T18:56:49.401Z,33.79
2018-08-06T18:59:18.200Z,33.60
2018-08-06T19:01:47.555Z,33.35
2018-08-06T19:04:16.500Z,33.21
2018-08-06T19:06:45.255Z,33.12
2018-08-06T19:09:16.717Z,33.06
2018-08-06T19:11:46.181Z,33.00
2018-08-06T19:14:20.805Z,32.92
2018-08-06T19:16:50.939Z,32.81
2018-08-06T19:19:27.609Z,32.63
2018-08-06T19:21:57.778Z,32.51
2018-08-06T19:24:31.785Z,32.31
2018-08-06T19:27:00.426Z,32.16
2018-08-06T19:29:29.176Z,32.07
2018-08-06T19:31:57.919Z,31.75
2018-08-06T19:34:26.997Z,31.57
2018-08-06T19:37:01.407Z,31.45
2018-08-06T19:39:30.136Z,31.31
2018-08-06T19:41:59.086Z,31.00
2018-08-06T19:44:28.304Z,30.81
2018-08-06T19:46:57.637Z,30.65
2018-08-06T19:49:31.438Z,30.35
2018-08-06T19:52:00.239Z,30.01
2018-08-06T19:54:29.355Z,29.81
2018-08-06T19:56:58.180Z,29.49
2018-08-06T19:59:27.139Z,29.19
2018-08-06T20:01:55.895Z,28.98
2018-08-06T20:04:24.712Z,28.83
2018-08-06T20:06:53.513Z,28.67
2018-08-06T20:09:22.451Z,28.59
2018-08-06T20:11:51.563Z,28.48
2018-08-06T20:14:20.873Z,28.35
2018-08-06T20:16:50.192Z,28.23
2018-08-06T20:19:18.945Z,28.01
2018-08-06T20:21:48.195Z,27.74
2018-08-06T20:24:17.075Z,27.59
2018-08-06T20:26:45.872Z,27.47
2018-08-06T20:29:14.625Z,27.41
2018-08-06T20:31:43.397Z,27.36
2018-08-06T20:34:12.175Z,27.23
2018-08-06T20:36:41.201Z,27.06
2018-08-06T20:39:10.895Z,26.89
2018-08-06T20:41:39.670Z,26.79
2018-08-06T20:44:08.456Z,26.69
2018-08-06T20:46:37.191Z,26.55
2018-08-06T20:49:06.475Z,26.41
2018-08-06T20:51:35.283Z,26.30
2018-08-06T20:54:04.533Z,26.23
2018-08-06T20:56:33.258Z,26.23
2018-08-06T20:59:02.284Z,26.12
2018-08-06T21:01:31.292Z,25.99
2018-08-06T21:04:00.031Z,25.93
2018-08-06T21:06:30.362Z,25.89
2018-08-06T21:08:59.431Z,25.87
2018-08-06T21:11:28.247Z,25.85
2018-08-06T21:13:57.410Z,25.72
2018-08-06T21:16:26.450Z,25.63
2018-08-06T21:18:55.805Z,25.59
2018-08-06T21:21:24.580Z,25.49
2018-08-06T21:23:53.495Z,25.43
2018-08-06T21:26:22.218Z,25.29
2018-08-06T21:28:51.461Z,25.22
2018-08-06T21:31:25.497Z,25.14
2018-08-06T21:33:54.703Z,25.12
2018-08-06T21:36:23.749Z,25.10
2018-08-06T21:38:52.887Z,25.06
2018-08-06T21:41:21.834Z,25.03
2018-08-06T21:43:50.924Z,24.93
2018-08-06T21:46:19.983Z,24.86
2018-08-06T21:48:49.277Z,24.81
2018-08-06T21:51:18.257Z,24.70
2018-08-06T21:53:46.995Z,24.66
2018-08-06T21:56:16.246Z,24.62
2018-08-06T21:58:45.558Z,24.52
2018-08-06T22:01:14.528Z,24.46
2018-08-06T22:03:43.839Z,24.43
2018-08-06T22:06:12.659Z,24.40
2018-08-06T22:08:42.714Z,24.33
2018-08-06T22:11:11.882Z,24.24
2018-08-06T22:13:41.081Z,24.18
2018-08-06T22:16:10.192Z,24.10
2018-08-06T22:18:39.372Z,24.04
2018-08-06T22:21:08.323Z,24.01
2018-08-06T22:23:37.061Z,23.97
2018-08-06T22:26:06.525Z,23.95
2018-08-06T22:28:35.385Z,23.91
2018-08-06T22:31:04.347Z,23.88
2018-08-06T22:33:33.372Z,23.86
2018-08-06T22:36:02.310Z,23.83
2018-08-06T22:38:31.485Z,23.77
2018-08-06T22:41:00.956Z,23.76
2018-08-06T22:43:30.054Z,23.71
2018-08-06T22:45:59.496Z,23.67
2018-08-06T22:48:28.955Z,23.63
2018-08-06T22:50:57.831Z,23.59
2018-08-06T22:53:27.363Z,23.57
2018-08-06T22:56:04.578Z,23.54
2018-08-06T22:58:33.894Z,23.53
2018-08-06T23:01:02.724Z,23.52
2018-08-06T23:03:31.862Z,23.48
2018-08-06T23:06:00.950Z,23.43
2018-08-06T23:08:29.919Z,23.36
2018-08-06T23:10:59.103Z,23.31
2018-08-06T23:13:28.261Z,23.24
2018-08-06T23:15:57.302Z,23.19
2018-08-06T23:18:26.105Z,23.12
2018-08-06T23:20:54.901Z,23.07
2018-08-06T23:23:23.710Z,23.04
2018-08-06T23:25:52.757Z,23.00
2018-08-06T23:28:21.586Z,22.95
2018-08-06T23:30:50.480Z,22.89
2018-08-06T23:33:19.493Z,22.83
2018-08-06T23:35:48.448Z,22.77
2018-08-06T23:38:17.251Z,22.70
2018-08-06T23:40:46.018Z,22.61
2018-08-06T23:43:15.108Z,22.55
2018-08-06T23:45:43.941Z,22.53
2018-08-06T23:48:13.011Z,22.49
2018-08-06T23:50:41.761Z,22.49
2018-08-06T23:53:10.816Z,22.47
2018-08-06T23:55:40.090Z,22.45
2018-08-06T23:58:09.783Z,22.43
